Time;durP1;ratioP1;P1;durP2;ratioP2;P2;SDS_P1;SDS_P2;PMS_P1;PMS_P2;Temp;Humidity;BMP_temperature;BMP_pressure;BME280_temperature;BME280_humidity;BME280_pressure;Samples;Min_cycle;Max_cycle;Signal;HPM_P1;HPM_P2
2023/09/14 00:01:47;;;;;;;12.52;4.68;;;10.10;99.90;;;;;;4996855;28;20053;-68
2023/09/14 00:04:12;;;;;;;7.65;3.78;;;10.20;99.90;;;;;;5011894;28;20034;-67
2023/09/14 00:06:38;;;;;;;8.07;3.65;;;10.20;99.90;;;;;;5013085;28;20052;-68
2023/09/14 00:09:04;;;;;;;5.90;3.50;;;10.20;99.90;;;;;;4996773;28;20045;-67
2023/09/14 00:11:29;;;;;;;8.85;4.10;;;10.20;99.90;;;;;;5010238;28;20052;-67
2023/09/14 00:13:55;;;;;;;12.90;4.70;;;10.10;99.90;;;;;;5016706;28;20460;-68
2023/09/14 00:16:20;;;;;;;7.75;3.55;;;10.10;99.90;;;;;;5015155;28;22297;-68
2023/09/14 00:18:46;;;;;;;11.13;4.35;;;10.20;99.90;;;;;;4996340;28;20539;-67
2023/09/14 00:21:11;;;;;;;9.05;3.55;;;10.10;99.90;;;;;;5011145;28;20078;-68
2023/09/14 00:23:37;;;;;;;8.38;3.47;;;10.10;99.90;;;;;;5013656;28;20057;-68
2023/09/14 00:26:02;;;;;;;9.73;2.80;;;10.10;99.90;;;;;;4996071;28;20473;-68
2023/09/14 00:28:28;;;;;;;7.57;3.20;;;10.00;99.90;;;;;;5011764;28;20030;-67
2023/09/14 00:30:54;;;;;;;7.15;2.67;;;10.00;99.90;;;;;;5024778;28;20556;-69
2023/09/14 00:33:21;;;;;;;5.07;2.88;;;9.90;99.90;;;;;;5013675;28;20526;-68
2023/09/14 00:35:47;;;;;;;5.82;2.10;;;9.90;99.90;;;;;;5012503;28;20041;-67
2023/09/14 00:38:13;;;;;;;4.07;1.90;;;9.90;99.90;;;;;;5013259;28;20399;-67
2023/09/14 00:40:39;;;;;;;3.25;2.05;;;9.80;99.90;;;;;;5013019;28;20034;-68
2023/09/14 00:43:04;;;;;;;3.72;2.10;;;9.70;99.90;;;;;;5027923;28;20068;-68
2023/09/14 00:45:32;;;;;;;12.77;2.13;;;9.70;99.90;;;;;;5026817;28;20033;-68
2023/09/14 00:47:59;;;;;;;92.57;4.00;;;9.70;99.90;;;;;;5020296;28;20509;-68
2023/09/14 00:50:26;;;;;;;112.07;4.70;;;9.70;99.90;;;;;;5013424;28;20117;-68
2023/09/14 00:53:02;;;;;;;49.47;3.10;;;9.70;99.90;;;;;;5019973;28;20099;-68
2023/09/14 00:55:29;;;;;;;5.75;1.90;;;9.70;99.90;;;;;;5022686;28;20041;-68
2023/09/14 00:57:56;;;;;;;5.53;1.60;;;9.60;99.90;;;;;;5017361;28;20070;-68
2023/09/14 01:00:21;;;;;;;23.63;2.33;;;9.60;99.90;;;;;;5013133;28;20404;-68
2023/09/14 01:02:51;;;;;;;2.20;1.35;;;9.60;99.90;;;;;;5010601;28;20034;-67
2023/09/14 01:05:17;;;;;;;5.72;1.50;;;9.50;99.90;;;;;;5012831;28;20038;-68
2023/09/14 01:07:44;;;;;;;31.38;2.28;;;9.50;99.90;;;;;;5012568;28;20104;-68
2023/09/14 01:10:10;;;;;;;8.45;1.90;;;9.50;99.90;;;;;;5012166;28;20177;-67
2023/09/14 01:12:36;;;;;;;7.40;1.95;;;9.50;99.90;;;;;;5013244;28;20485;-67
2023/09/14 01:15:10;;;;;;;33.88;2.40;;;9.50;99.90;;;;;;5012873;28;20038;-68
2023/09/14 01:18:02;;;;;;;3.45;2.10;;;9.50;99.90;;;;;;5012019;28;20077;-68
2023/09/14 01:20:28;;;;;;;2.45;1.85;;;9.50;99.90;;;;;;5011753;28;20405;-68
2023/09/14 01:23:28;;;;;;;41.63;3.00;;;9.60;99.90;;;;;;4995201;28;20058;-68
2023/09/14 01:25:55;;;;;;;8.50;2.40;;;9.60;99.90;;;;;;5012836;28;20041;-68
2023/09/14 01:28:21;;;;;;;7.03;2.40;;;9.60;99.90;;;;;;5016432;28;20034;-68
2023/09/14 01:30:46;;;;;;;4.10;2.60;;;9.60;99.90;;;;;;5012369;28;20041;-68
2023/09/14 01:33:17;;;;;;;3.03;1.38;;;9.60;99.90;;;;;;5012787;28;20045;-67
2023/09/14 01:36:03;;;;;;;3.33;1.38;;;9.50;99.90;;;;;;5010359;28;20088;-67
2023/09/14 01:38:30;;;;;;;4.95;2.00;;;9.20;99.90;;;;;;5012461;28;20469;-67
2023/09/14 01:40:56;;;;;;;3.95;2.28;;;9.20;99.90;;;;;;5012364;28;20044;-68
2023/09/14 01:43:23;;;;;;;3.47;2.42;;;9.10;99.90;;;;;;5010417;28;20515;-68
2023/09/14 01:45:49;;;;;;;5.20;2.70;;;9.20;99.90;;;;;;5012118;28;20041;-68
2023/09/14 01:48:16;;;;;;;4.55;2.05;;;9.20;99.90;;;;;;4994675;28;20044;-68
2023/09/14 01:50:42;;;;;;;3.47;1.88;;;9.20;99.90;;;;;;5011020;28;20042;-68
2023/09/14 01:53:08;;;;;;;5.28;2.15;;;9.20;99.90;;;;;;4995707;28;20044;-68
2023/09/14 01:55:33;;;;;;;7.72;2.42;;;9.20;99.90;;;;;;5011558;28;20040;-68
2023/09/14 01:57:59;;;;;;;9.82;2.92;;;9.10;99.90;;;;;;5012618;28;20427;-67
2023/09/14 02:00:26;;;;;;;4.85;3.17;;;9.20;99.90;;;;;;5012474;28;20103;-68
2023/09/14 02:02:52;;;;;;;7.95;3.20;;;9.20;99.90;;;;;;5016511;28;20077;-67
2023/09/14 02:05:18;;;;;;;4.80;2.88;;;9.20;99.90;;;;;;5012068;28;20038;-68
2023/09/14 02:07:43;;;;;;;4.28;2.40;;;9.20;99.90;;;;;;5010541;28;20113;-67
2023/09/14 02:10:09;;;;;;;4.53;1.38;;;9.10;99.90;;;;;;5015588;28;20080;-67
2023/09/14 02:12:35;;;;;;;3.83;1.52;;;9.10;99.90;;;;;;5011670;28;20049;-68
2023/09/14 02:15:00;;;;;;;3.35;2.15;;;8.90;99.90;;;;;;5010847;28;20050;-68
2023/09/14 02:17:26;;;;;;;5.07;2.47;;;8.90;99.90;;;;;;5014071;28;20049;-67
2023/09/14 02:19:53;;;;;;;4.32;2.05;;;8.90;99.90;;;;;;5020954;28;20142;-67
2023/09/14 02:22:19;;;;;;;3.35;1.80;;;8.80;99.90;;;;;;5011240;28;20092;-68
2023/09/14 02:24:44;;;;;;;1.90;1.60;;;8.80;99.90;;;;;;5011845;28;20037;-68
2023/09/14 02:27:11;;;;;;;9.38;2.78;;;8.80;99.90;;;;;;4994006;28;20050;-68
2023/09/14 02:29:37;;;;;;;3.88;2.50;;;8.80;99.90;;;;;;5011259;28;20366;-68
2023/09/14 02:32:03;;;;;;;3.92;2.65;;;8.90;99.90;;;;;;5012098;28;20049;-68
2023/09/14 02:34:28;;;;;;;6.10;2.47;;;8.90;99.90;;;;;;5012577;28;20037;-68
2023/09/14 02:36:54;;;;;;;26.48;2.40;;;8.80;99.90;;;;;;5011252;28;20044;-68
2023/09/14 02:39:19;;;;;;;14.30;2.28;;;8.80;99.90;;;;;;5011196;28;20056;-68
2023/09/14 02:41:45;;;;;;;15.25;1.83;;;8.70;99.90;;;;;;5010106;28;20489;-68
2023/09/14 02:44:10;;;;;;;47.33;2.78;;;8.70;99.90;;;;;;5015287;28;20038;-68
2023/09/14 02:46:36;;;;;;;86.95;3.72;;;8.70;99.90;;;;;;5011311;28;20041;-67
2023/09/14 02:49:02;;;;;;;73.47;4.25;;;8.70;99.90;;;;;;5011869;28;20046;-68
2023/09/14 02:51:27;;;;;;;13.48;2.45;;;8.80;99.90;;;;;;5015192;28;20041;-68
2023/09/14 02:53:53;;;;;;;20.63;1.83;;;8.80;99.90;;;;;;5012047;28;20560;-68
2023/09/14 02:56:18;;;;;;;69.50;4.63;;;8.80;99.90;;;;;;5011216;28;20033;-67
2023/09/14 02:58:44;;;;;;;107.47;6.00;;;8.80;99.90;;;;;;4993608;28;20164;-68
2023/09/14 03:01:10;;;;;;;4.95;2.75;;;8.80;99.90;;;;;;5012875;28;20501;-68
2023/09/14 03:03:36;;;;;;;31.58;3.63;;;8.80;99.90;;;;;;5011389;28;20038;-68
2023/09/14 03:06:02;;;;;;;60.55;3.80;;;8.80;99.90;;;;;;5011476;28;20196;-68
2023/09/14 03:08:28;;;;;;;5.03;3.10;;;8.80;99.90;;;;;;5010980;28;20499;-67
2023/09/14 03:10:53;;;;;;;8.38;3.55;;;8.70;99.90;;;;;;5016295;28;20042;-68
2023/09/14 03:13:19;;;;;;;24.77;3.50;;;8.70;99.90;;;;;;5016600;28;20038;-68
2023/09/14 03:15:44;;;;;;;20.17;3.20;;;8.70;99.90;;;;;;5009112;28;20030;-68
2023/09/14 03:18:10;;;;;;;11.18;3.47;;;8.70;99.90;;;;;;5011418;28;20116;-68
2023/09/14 03:20:38;;;;;;;5.88;3.20;;;8.60;99.90;;;;;;5011281;28;20044;-68
2023/09/14 03:23:04;;;;;;;9.77;3.67;;;8.60;99.90;;;;;;5009389;28;20045;-68
2023/09/14 03:25:31;;;;;;;35.35;4.00;;;8.60;99.90;;;;;;5022004;28;20048;-68
2023/09/14 03:27:56;;;;;;;101.53;3.45;;;8.60;99.90;;;;;;5011092;28;20076;-67
2023/09/14 03:30:22;;;;;;;32.22;2.30;;;8.60;99.90;;;;;;5010986;28;20049;-68
2023/09/14 03:32:48;;;;;;;2.67;1.73;;;8.50;99.90;;;;;;4994672;28;20038;-68
2023/09/14 03:35:14;;;;;;;5.53;2.03;;;8.50;99.90;;;;;;5015877;28;20077;-67
2023/09/14 03:37:40;;;;;;;6.65;1.88;;;8.50;99.90;;;;;;4993149;28;20085;-68
2023/09/14 03:40:08;;;;;;;7.30;2.10;;;8.50;99.90;;;;;;5012041;28;20080;-67
2023/09/14 03:42:34;;;;;;;19.58;2.17;;;8.50;99.90;;;;;;4994850;28;20507;-68
2023/09/14 03:44:59;;;;;;;4.95;1.77;;;8.40;99.90;;;;;;5016178;28;20069;-68
2023/09/14 03:47:25;;;;;;;4.18;1.80;;;8.40;99.90;;;;;;5014091;28;20030;-68
2023/09/14 03:49:50;;;;;;;3.88;2.30;;;8.40;99.90;;;;;;5018448;28;20493;-68
2023/09/14 03:52:16;;;;;;;4.40;2.33;;;8.40;99.90;;;;;;5015256;28;20041;-67
2023/09/14 03:54:42;;;;;;;93.95;3.70;;;8.40;99.90;;;;;;5020958;28;20038;-68
2023/09/14 03:57:14;;;;;;;8.57;2.33;;;8.30;99.90;;;;;;5013561;28;20636;-68
2023/09/14 03:59:41;;;;;;;46.15;2.70;;;8.30;99.90;;;;;;4999295;28;20566;-68
2023/09/14 04:02:08;;;;;;;61.42;3.63;;;8.30;99.90;;;;;;5014328;28;20051;-68
2023/09/14 04:04:34;;;;;;;19.70;2.38;;;8.30;99.90;;;;;;5012712;28;20092;-67
2023/09/14 04:06:59;;;;;;;6.90;2.58;;;8.30;99.90;;;;;;5013729;28;20037;-68
2023/09/14 04:09:29;;;;;;;13.48;2.80;;;8.30;99.90;;;;;;5013651;28;20040;-67
2023/09/14 04:11:55;;;;;;;14.05;3.53;;;8.30;99.90;;;;;;5014433;28;20458;-68
2023/09/14 04:14:22;;;;;;;16.92;2.30;;;8.30;99.90;;;;;;5013425;28;20050;-68
2023/09/14 04:16:48;;;;;;;5.28;2.38;;;8.30;99.90;;;;;;5019982;28;20048;-68
2023/09/14 04:19:14;;;;;;;18.73;3.40;;;8.30;99.90;;;;;;5013654;28;20451;-67
2023/09/14 04:21:43;;;;;;;3.35;2.28;;;8.30;99.90;;;;;;5011900;28;20052;-68
2023/09/14 04:24:09;;;;;;;3.13;2.22;;;8.30;99.90;;;;;;5013398;28;20049;-67
2023/09/14 04:26:35;;;;;;;4.00;2.70;;;8.30;99.90;;;;;;5013587;28;20030;-68
2023/09/14 04:29:00;;;;;;;5.50;2.50;;;8.20;99.90;;;;;;5014295;28;20044;-68
2023/09/14 04:31:26;;;;;;;4.43;2.58;;;8.20;99.90;;;;;;4996309;28;20136;-67
2023/09/14 04:33:52;;;;;;;4.35;2.45;;;8.20;99.90;;;;;;4997512;28;20044;-68
2023/09/14 04:36:17;;;;;;;5.85;3.53;;;8.20;99.90;;;;;;5013486;28;20041;-67
2023/09/14 04:38:43;;;;;;;7.45;3.90;;;8.20;99.90;;;;;;4997770;28;20038;-68
2023/09/14 04:41:09;;;;;;;4.85;3.08;;;8.20;99.90;;;;;;5020778;28;20518;-68
2023/09/14 04:43:34;;;;;;;7.75;3.20;;;8.20;99.90;;;;;;5013542;28;20037;-68
2023/09/14 04:46:01;;;;;;;8.05;3.22;;;8.20;99.90;;;;;;5013663;28;20046;-68
2023/09/14 04:48:27;;;;;;;4.60;2.35;;;8.20;99.90;;;;;;5015343;28;20374;-67
2023/09/14 04:50:55;;;;;;;60.15;2.20;;;8.10;99.90;;;;;;5012920;28;20037;-68
2023/09/14 04:53:21;;;;;;;25.35;1.90;;;8.10;99.90;;;;;;5023825;28;20414;-68
2023/09/14 04:55:46;;;;;;;3.15;1.10;;;8.10;99.90;;;;;;5020101;28;20579;-68
2023/09/14 04:58:12;;;;;;;18.85;1.60;;;8.10;99.90;;;;;;4996371;28;20113;-68
2023/09/14 05:00:37;;;;;;;4.82;2.00;;;8.10;99.90;;;;;;5013189;28;20470;-68
2023/09/14 05:03:05;;;;;;;6.22;2.17;;;8.10;99.90;;;;;;5013175;28;20038;-68
2023/09/14 05:05:32;;;;;;;6.03;1.83;;;8.10;99.90;;;;;;5019948;28;20117;-67
2023/09/14 05:07:58;;;;;;;4.28;2.13;;;8.10;99.90;;;;;;5013210;28;20037;-68
2023/09/14 05:10:25;;;;;;;2.58;1.70;;;8.00;99.90;;;;;;5013021;28;20073;-68
2023/09/14 05:12:51;;;;;;;1.98;1.05;;;8.00;99.90;;;;;;4993412;28;20046;-68
2023/09/14 05:15:17;;;;;;;2.55;1.45;;;8.00;99.90;;;;;;5012769;28;20408;-68
2023/09/14 05:17:43;;;;;;;1.63;1.20;;;8.00;99.90;;;;;;4994560;28;20053;-68
2023/09/14 05:20:09;;;;;;;1.65;1.30;;;8.00;99.90;;;;;;5011175;28;20041;-67
2023/09/14 05:22:35;;;;;;;1.83;1.30;;;8.00;99.90;;;;;;5020104;28;20076;-68
2023/09/14 05:25:02;;;;;;;2.25;1.10;;;7.90;99.90;;;;;;4995159;28;20048;-68
2023/09/14 05:27:33;;;;;;;1.20;1.10;;;8.00;99.90;;;;;;5011340;28;20053;-68
2023/09/14 05:29:59;;;;;;;2.08;1.17;;;8.00;99.90;;;;;;5018335;28;20044;-68
2023/09/14 05:32:24;;;;;;;2.70;1.20;;;8.00;99.90;;;;;;5018350;28;20058;-68
2023/09/14 05:34:50;;;;;;;6.05;1.90;;;8.10;99.90;;;;;;5027707;28;20417;-68
2023/09/14 05:37:15;;;;;;;5.10;2.00;;;8.10;99.90;;;;;;5014971;28;20381;-68
2023/09/14 05:39:41;;;;;;;3.15;2.00;;;8.10;99.90;;;;;;4999626;28;20362;-68
2023/09/14 05:42:07;;;;;;;3.10;1.70;;;8.20;99.90;;;;;;5011685;28;20412;-68
2023/09/14 05:44:32;;;;;;;1.70;1.13;;;8.20;99.90;;;;;;5012674;28;20044;-68
2023/09/14 05:46:58;;;;;;;2.28;1.40;;;8.20;99.90;;;;;;5009541;28;20046;-68
2023/09/14 05:49:23;;;;;;;64.30;4.93;;;8.30;99.90;;;;;;5012076;28;20049;-68
2023/09/14 05:51:49;;;;;;;33.83;2.28;;;8.40;99.90;;;;;;5012673;28;20059;-67
2023/09/14 05:54:14;;;;;;;2.83;1.60;;;8.40;99.90;;;;;;5030341;28;20041;-67
2023/09/14 05:56:40;;;;;;;3.22;1.30;;;8.40;99.90;;;;;;5021532;28;20176;-68
2023/09/14 05:59:05;;;;;;;2.40;1.40;;;8.40;99.90;;;;;;4996568;28;20136;-68
2023/09/14 06:01:31;;;;;;;2.97;1.48;;;8.50;99.90;;;;;;5030490;28;20045;-67
2023/09/14 06:03:57;;;;;;;4.10;2.03;;;8.50;99.90;;;;;;5017188;28;20030;-68
2023/09/14 06:06:22;;;;;;;4.07;1.95;;;8.50;99.90;;;;;;5011691;28;20066;-68
2023/09/14 06:08:48;;;;;;;3.92;2.58;;;8.60;99.90;;;;;;5012451;28;20440;-67
2023/09/14 06:11:13;;;;;;;4.32;1.83;;;8.70;99.90;;;;;;5013027;28;20046;-68
2023/09/14 06:13:39;;;;;;;5.57;2.15;;;8.80;99.90;;;;;;5012493;28;20048;-68
2023/09/14 06:16:05;;;;;;;3.55;2.25;;;8.90;99.90;;;;;;4991156;28;20056;-67
2023/09/14 06:18:31;;;;;;;5.85;2.60;;;8.90;99.90;;;;;;5009673;28;20658;-68
2023/09/14 06:20:56;;;;;;;4.18;2.55;;;9.00;99.90;;;;;;4992808;28;20068;-67
2023/09/14 06:23:22;;;;;;;8.68;2.83;;;9.00;99.90;;;;;;5027740;28;20029;-67
2023/09/14 06:25:51;;;;;;;6.07;2.92;;;9.10;99.90;;;;;;5025601;28;20038;-68
2023/09/14 06:28:16;;;;;;;4.80;3.10;;;9.20;99.90;;;;;;5020727;28;20045;-68
2023/09/14 06:30:42;;;;;;;7.05;3.28;;;9.30;99.90;;;;;;5011875;28;20042;-68
2023/09/14 06:33:07;;;;;;;8.98;3.70;;;9.30;99.90;;;;;;5012522;28;20045;-68
2023/09/14 06:35:33;;;;;;;8.25;3.75;;;9.40;99.90;;;;;;5017919;28;20473;-68
2023/09/14 06:37:58;;;;;;;7.95;4.05;;;9.50;99.90;;;;;;5018765;28;20034;-67
2023/09/14 06:40:24;;;;;;;10.70;4.43;;;9.60;99.90;;;;;;5019798;28;20104;-68
2023/09/14 06:42:50;;;;;;;12.70;4.78;;;9.60;99.90;;;;;;5010300;28;20045;-68
2023/09/14 06:45:15;;;;;;;12.52;5.18;;;9.70;99.90;;;;;;5011957;28;20053;-68
2023/09/14 06:47:41;;;;;;;12.98;5.63;;;9.80;99.90;;;;;;5011339;28;20037;-68
2023/09/14 06:50:07;;;;;;;14.73;6.63;;;10.00;99.90;;;;;;5011657;28;20041;-68
2023/09/14 06:52:34;;;;;;;13.25;7.03;;;10.10;99.90;;;;;;4995304;28;20046;-69
2023/09/14 06:55:00;;;;;;;16.85;7.78;;;10.10;99.90;;;;;;4996709;28;20046;-68
2023/09/14 06:57:25;;;;;;;14.85;7.60;;;10.20;99.90;;;;;;5010988;28;20042;-68
2023/09/14 06:59:51;;;;;;;13.43;8.68;;;10.40;99.90;;;;;;5009764;28;20393;-67
2023/09/14 07:02:16;;;;;;;14.93;7.28;;;10.50;99.90;;;;;;4994376;28;20412;-68
2023/09/14 07:04:42;;;;;;;20.40;9.00;;;10.60;99.90;;;;;;5011255;28;20034;-68
2023/09/14 07:07:08;;;;;;;16.48;9.95;;;10.60;99.90;;;;;;5011240;28;20507;-68
2023/09/14 07:09:33;;;;;;;16.05;10.30;;;10.70;99.90;;;;;;5009101;28;20060;-67
2023/09/14 07:11:59;;;;;;;16.85;10.25;;;10.80;99.90;;;;;;4999111;28;20069;-68
2023/09/14 07:14:25;;;;;;;21.67;11.02;;;10.90;99.90;;;;;;5022400;28;20412;-67
2023/09/14 07:16:51;;;;;;;20.48;10.80;;;11.00;99.90;;;;;;5027794;28;20119;-68
2023/09/14 07:19:16;;;;;;;19.48;10.43;;;11.10;99.90;;;;;;5024674;28;20065;-67
2023/09/14 07:21:42;;;;;;;24.60;10.38;;;11.20;99.90;;;;;;5014907;28;20092;-67
2023/09/14 07:24:08;;;;;;;20.52;9.73;;;11.30;99.90;;;;;;5015232;28;20034;-69
2023/09/14 07:26:34;;;;;;;16.20;9.20;;;11.40;99.90;;;;;;4999750;28;20038;-69
2023/09/14 07:29:00;;;;;;;18.42;8.95;;;11.60;99.90;;;;;;4997154;28;20046;-68
2023/09/14 07:31:26;;;;;;;17.55;9.13;;;11.60;99.90;;;;;;5015238;28;20040;-68
2023/09/14 07:33:52;;;;;;;20.52;9.55;;;11.70;99.90;;;;;;5015186;28;20041;-69
2023/09/14 07:36:18;;;;;;;18.80;9.48;;;11.80;99.90;;;;;;5013070;28;20041;-68
2023/09/14 07:38:44;;;;;;;21.67;9.07;;;11.90;99.90;;;;;;5033121;28;20083;-68
2023/09/14 07:41:10;;;;;;;21.23;9.05;;;12.00;99.90;;;;;;4999332;28;20045;-68
2023/09/14 07:43:36;;;;;;;17.15;8.75;;;12.10;99.90;;;;;;5021090;28;20042;-68
2023/09/14 07:46:02;;;;;;;23.98;8.38;;;12.30;99.90;;;;;;5014015;28;20041;-68
2023/09/14 07:48:27;;;;;;;15.48;8.82;;;12.40;99.90;;;;;;5015080;28;20042;-67
2023/09/14 07:50:53;;;;;;;15.30;8.32;;;12.50;99.90;;;;;;5017503;28;20087;-67
2023/09/14 07:53:18;;;;;;;15.23;7.88;;;12.60;99.90;;;;;;5022770;28;20120;-68
2023/09/14 07:55:45;;;;;;;13.00;7.35;;;12.70;99.90;;;;;;5014330;28;20037;-68
2023/09/14 07:58:11;;;;;;;20.13;6.95;;;12.80;99.90;;;;;;5014320;28;20418;-68
2023/09/14 08:00:36;;;;;;;17.13;7.50;;;13.00;99.90;;;;;;5010774;28;20065;-69
2023/09/14 08:03:02;;;;;;;18.95;7.93;;;13.00;99.90;;;;;;5023528;28;20041;-68
2023/09/14 08:05:28;;;;;;;12.95;6.60;;;13.10;99.90;;;;;;5000187;28;20037;-68
2023/09/14 08:07:54;;;;;;;12.43;6.55;;;13.30;99.90;;;;;;5019291;28;20052;-67
2023/09/14 08:10:19;;;;;;;16.58;6.20;;;13.40;99.90;;;;;;5013608;28;20528;-68
2023/09/14 08:12:45;;;;;;;13.20;5.22;;;13.40;99.90;;;;;;5010911;28;20408;-68
2023/09/14 08:15:11;;;;;;;9.77;4.68;;;13.50;99.90;;;;;;5013370;28;20061;-68
2023/09/14 08:17:37;;;;;;;12.88;4.78;;;13.60;99.90;;;;;;5012686;28;20042;-68
2023/09/14 08:20:03;;;;;;;11.80;4.30;;;13.70;99.90;;;;;;5011385;28;20041;-68
2023/09/14 08:22:29;;;;;;;14.15;4.60;;;13.80;99.90;;;;;;5013775;28;20485;-68
2023/09/14 08:24:58;;;;;;;11.93;4.60;;;13.90;99.90;;;;;;5014122;28;20042;-68
2023/09/14 08:27:24;;;;;;;12.63;4.07;;;14.00;99.90;;;;;;5010738;28;20045;-68
2023/09/14 08:29:50;;;;;;;8.52;4.22;;;14.00;99.90;;;;;;5017689;28;20125;-68
2023/09/14 08:32:16;;;;;;;12.55;3.63;;;14.10;99.90;;;;;;5011305;28;20096;-69
2023/09/14 08:34:41;;;;;;;10.32;3.15;;;14.20;99.90;;;;;;5016725;28;20514;-69
2023/09/14 08:37:10;;;;;;;10.55;3.30;;;14.30;99.90;;;;;;5014984;28;20121;-68
2023/09/14 08:39:38;;;;;;;8.40;2.85;;;14.40;99.90;;;;;;5013819;28;20041;-68
2023/09/14 08:42:04;;;;;;;6.78;3.40;;;14.40;99.90;;;;;;5012435;28;21059;-68
2023/09/14 08:44:33;;;;;;;9.98;3.08;;;14.50;99.90;;;;;;5013244;28;20030;-68
2023/09/14 08:47:00;;;;;;;8.27;2.95;;;14.60;99.90;;;;;;5013388;28;20026;-68
2023/09/14 08:49:28;;;;;;;10.02;2.70;;;14.70;99.90;;;;;;5011771;28;20054;-68
2023/09/14 08:51:57;;;;;;;5.82;2.47;;;14.70;99.90;;;;;;4994496;28;20412;-68
2023/09/14 08:54:23;;;;;;;6.25;2.30;;;14.80;99.90;;;;;;5026209;28;20496;-68
2023/09/14 08:56:49;;;;;;;7.15;2.63;;;14.90;99.90;;;;;;5017823;28;20034;-68
2023/09/14 08:59:21;;;;;;;6.75;2.58;;;14.90;99.90;;;;;;5013363;28;20511;-68
2023/09/14 09:01:50;;;;;;;8.40;3.08;;;14.90;99.90;;;;;;4993507;28;20095;-68
2023/09/14 09:04:16;;;;;;;11.55;3.13;;;15.00;99.90;;;;;;5012946;28;20081;-68
2023/09/14 09:06:42;;;;;;;6.88;2.65;;;15.00;99.90;;;;;;5012847;28;20041;-68
2023/09/14 09:09:10;;;;;;;10.50;2.90;;;15.20;99.90;;;;;;5015471;28;20399;-67
2023/09/14 09:11:37;;;;;;;7.47;2.90;;;15.20;99.90;;;;;;5012670;28;20121;-67
2023/09/14 09:14:03;;;;;;;9.35;2.30;;;15.30;99.90;;;;;;5013679;28;20064;-68
2023/09/14 09:16:29;;;;;;;11.50;3.00;;;15.30;99.90;;;;;;5010844;28;20038;-69
2023/09/14 09:19:06;;;;;;;9.57;2.63;;;15.40;99.90;;;;;;5020845;28;20034;-67
2023/09/14 09:21:34;;;;;;;8.57;2.50;;;15.50;99.90;;;;;;5012547;28;20045;-68
2023/09/14 09:24:07;;;;;;;8.20;2.55;;;15.50;99.90;;;;;;5010697;28;20038;-68
2023/09/14 09:26:35;;;;;;;3.90;1.88;;;15.50;99.90;;;;;;5001512;28;20042;-67
2023/09/14 09:29:13;;;;;;;11.98;2.78;;;15.70;99.90;;;;;;5012871;28;20088;-68
2023/09/14 09:31:46;;;;;;;5.82;2.13;;;15.80;99.90;;;;;;5019371;28;20091;-67
2023/09/14 09:34:13;;;;;;;10.52;2.58;;;15.80;99.90;;;;;;5012370;28;20498;-68
2023/09/14 09:36:39;;;;;;;6.80;2.75;;;16.00;99.90;;;;;;5012908;28;20124;-68
2023/09/14 09:39:06;;;;;;;6.72;2.67;;;16.00;99.90;;;;;;4989235;28;20046;-68
2023/09/14 09:41:33;;;;;;;10.48;2.55;;;16.10;99.90;;;;;;5012118;28;20542;-68
2023/09/14 09:43:59;;;;;;;7.60;2.53;;;16.20;99.90;;;;;;5012533;28;20109;-68
2023/09/14 09:46:24;;;;;;;7.05;2.13;;;16.20;99.90;;;;;;5012237;28;20116;-69
2023/09/14 09:48:50;;;;;;;9.20;2.08;;;16.30;99.90;;;;;;5010526;28;20034;-69
2023/09/14 09:51:20;;;;;;;7.10;2.20;;;16.30;99.90;;;;;;5016889;28;20084;-69
2023/09/14 09:54:04;;;;;;;5.47;2.55;;;16.30;99.90;;;;;;5020019;28;20452;-69
2023/09/14 09:56:29;;;;;;;6.82;1.95;;;16.30;99.90;;;;;;5012624;28;20034;-68
2023/09/14 09:58:55;;;;;;;6.32;1.98;;;16.30;99.90;;;;;;5011938;28;20111;-69
2023/09/14 10:01:21;;;;;;;9.77;2.33;;;16.30;99.90;;;;;;5012050;28;20038;-69
2023/09/14 10:03:47;;;;;;;6.65;2.40;;;16.40;99.90;;;;;;5012666;28;20121;-69
2023/09/14 10:06:13;;;;;;;9.27;2.47;;;16.30;99.90;;;;;;5019109;28;20067;-68
2023/09/14 10:08:39;;;;;;;10.20;2.10;;;16.40;99.90;;;;;;5011877;28;20030;-68
2023/09/14 10:11:06;;;;;;;6.63;2.13;;;16.40;99.90;;;;;;5012115;28;20073;-69
2023/09/14 10:13:32;;;;;;;13.13;2.63;;;16.50;99.90;;;;;;5017375;28;20045;-69
2023/09/14 10:16:00;;;;;;;7.82;2.15;;;16.60;99.90;;;;;;5021571;28;20492;-68
2023/09/14 10:18:28;;;;;;;8.35;2.30;;;16.60;99.90;;;;;;5011851;28;20038;-69
2023/09/14 10:20:55;;;;;;;10.85;2.63;;;16.80;99.90;;;;;;4994653;28;20084;-68
2023/09/14 10:23:22;;;;;;;5.55;2.20;;;16.80;99.90;;;;;;5008933;28;20078;-69
2023/09/14 10:25:50;;;;;;;7.05;2.15;;;16.80;99.90;;;;;;5011252;28;20579;-69
2023/09/14 10:28:22;;;;;;;4.13;2.10;;;16.90;99.90;;;;;;5011650;28;20049;-68
2023/09/14 10:30:50;;;;;;;10.27;2.60;;;16.90;99.90;;;;;;5015624;28;20509;-69
2023/09/14 10:33:17;;;;;;;10.13;2.40;;;16.90;99.90;;;;;;5009363;28;20053;-68
2023/09/14 10:35:43;;;;;;;10.85;2.85;;;17.00;99.90;;;;;;5011222;28;20046;-69
2023/09/14 10:38:10;;;;;;;7.70;2.25;;;17.10;99.90;;;;;;5011663;28;20656;-69
2023/09/14 10:40:39;;;;;;;9.05;2.42;;;17.10;99.90;;;;;;4991603;28;20041;-68
2023/09/14 10:43:05;;;;;;;5.55;2.08;;;17.20;99.90;;;;;;5011069;28;20034;-68
2023/09/14 10:45:36;;;;;;;7.88;2.20;;;17.30;99.90;;;;;;4992084;28;20518;-68
2023/09/14 10:48:07;;;;;;;6.07;2.40;;;17.30;99.90;;;;;;5010681;28;20030;-68
2023/09/14 10:50:33;;;;;;;7.47;2.20;;;17.40;99.90;;;;;;5011402;28;20034;-67
2023/09/14 10:53:00;;;;;;;4.15;1.83;;;17.60;99.90;;;;;;5018551;28;20516;-68
2023/09/14 10:55:26;;;;;;;8.23;2.30;;;17.60;99.90;;;;;;5028048;28;20135;-68
2023/09/14 10:57:52;;;;;;;12.00;2.50;;;17.70;99.90;;;;;;5022558;28;20077;-68
2023/09/14 11:00:38;;;;;;;5.75;2.50;;;17.90;99.90;;;;;;5011097;28;20052;-68
2023/09/14 11:03:06;;;;;;;4.78;2.13;;;18.00;99.90;;;;;;5009270;28;20053;-68
2023/09/14 11:05:47;;;;;;;5.85;2.45;;;18.10;99.90;;;;;;5016272;28;20034;-67
2023/09/14 11:08:17;;;;;;;7.63;2.50;;;18.00;99.90;;;;;;5011569;28;20038;-68
2023/09/14 11:11:00;;;;;;;6.97;2.35;;;18.20;99.90;;;;;;5009085;28;20492;-68
2023/09/14 11:13:32;;;;;;;6.50;2.50;;;18.30;99.90;;;;;;5010792;28;20097;-69
2023/09/14 11:16:16;;;;;;;5.85;2.15;;;18.40;99.90;;;;;;5010612;28;20424;-68
2023/09/14 11:18:45;;;;;;;6.10;2.40;;;18.80;99.90;;;;;;5011204;28;20459;-68
2023/09/14 11:21:32;;;;;;;8.25;2.30;;;18.80;99.90;;;;;;5003820;28;20037;-68
2023/09/14 11:24:05;;;;;;;6.55;2.50;;;18.70;99.90;;;;;;5011210;28;20065;-68
2023/09/14 11:26:38;;;;;;;11.10;2.60;;;18.60;99.90;;;;;;5010931;28;20037;-68
2023/09/14 11:29:05;;;;;;;6.38;2.28;;;18.50;99.90;;;;;;5012935;28;20403;-68
2023/09/14 11:31:34;;;;;;;4.13;2.10;;;18.30;99.90;;;;;;5006165;28;20124;-67
2023/09/14 11:34:12;;;;;;;5.88;2.10;;;18.40;99.90;;;;;;5022487;28;20039;-68
2023/09/14 11:36:38;;;;;;;9.52;2.47;;;18.30;99.90;;;;;;5019429;28;20049;-68
2023/09/14 11:39:11;;;;;;;7.70;2.60;;;18.20;99.90;;;;;;5010373;28;20041;-67
2023/09/14 11:41:37;;;;;;;8.20;2.45;;;18.10;99.90;;;;;;5024148;28;20041;-67
2023/09/14 11:44:04;;;;;;;6.82;2.67;;;18.20;99.90;;;;;;5007357;28;20594;-68
2023/09/14 11:46:31;;;;;;;8.00;2.40;;;18.60;99.90;;;;;;5010246;28;20088;-68
2023/09/14 11:48:58;;;;;;;9.75;2.70;;;18.60;99.90;;;;;;5010827;28;20034;-68
2023/09/14 11:51:25;;;;;;;7.38;2.20;;;18.60;99.90;;;;;;5010692;28;20038;-67
2023/09/14 11:53:55;;;;;;;10.50;2.55;;;18.60;99.90;;;;;;5009335;28;20042;-68
2023/09/14 11:56:20;;;;;;;10.82;3.03;;;18.70;99.90;;;;;;4992995;28;20053;-69
2023/09/14 11:58:46;;;;;;;8.57;2.42;;;18.90;99.90;;;;;;5011111;28;20034;-68
2023/09/14 12:01:12;;;;;;;9.07;2.47;;;19.10;99.90;;;;;;4993937;28;20489;-69
2023/09/14 12:03:38;;;;;;;7.40;2.70;;;19.30;99.90;;;;;;5011657;28;20109;-68
2023/09/14 12:06:04;;;;;;;9.00;2.85;;;19.50;99.90;;;;;;5013593;28;20115;-67
2023/09/14 12:08:30;;;;;;;9.45;2.80;;;19.70;99.90;;;;;;5016366;28;20506;-68
2023/09/14 12:10:56;;;;;;;9.30;2.97;;;19.80;99.90;;;;;;5016479;28;20038;-68
2023/09/14 12:13:22;;;;;;;8.10;2.50;;;20.20;99.90;;;;;;4996385;28;20048;-68
2023/09/14 12:16:04;;;;;;;7.40;2.58;;;20.20;99.90;;;;;;5014809;28;20489;-65
2023/09/14 12:18:43;;;;;;;;;;;19.90;99.90;;;;;;5010402;28;20092;-69
2023/09/14 12:21:10;;;;;;;9.07;2.72;;;19.60;99.80;;;;;;4995910;28;19921;-69
2023/09/14 12:23:38;;;;;;;7.57;2.33;;;19.60;99.90;;;;;;5014197;28;20117;-68
2023/09/14 12:26:05;;;;;;;8.35;2.97;;;19.60;99.90;;;;;;5014641;28;20046;-68
2023/09/14 12:28:32;;;;;;;10.05;2.80;;;19.50;99.90;;;;;;5016933;28;20062;-69
2023/09/14 12:30:58;;;;;;;9.35;2.83;;;19.30;99.90;;;;;;5013660;28;20484;-69
2023/09/14 12:33:24;;;;;;;8.15;2.78;;;19.20;99.90;;;;;;4996437;28;20085;-69
2023/09/14 12:35:50;;;;;;;8.50;2.75;;;19.50;99.90;;;;;;5012344;28;20065;-69
2023/09/14 12:38:16;;;;;;;7.80;2.60;;;19.80;99.90;;;;;;5025386;28;20468;-69
2023/09/14 12:40:42;;;;;;;10.35;2.80;;;20.00;99.90;;;;;;5013591;28;20117;-69
2023/09/14 12:43:07;;;;;;;7.30;2.78;;;20.10;99.90;;;;;;5011900;28;20559;-69
2023/09/14 12:45:34;;;;;;;8.13;2.80;;;20.00;99.90;;;;;;5019518;28;20030;-68
2023/09/14 12:48:04;;;;;;;8.82;2.70;;;20.20;99.90;;;;;;5022046;28;20030;-68